If you wish to contribute or participate in the discussions about articles you are invited to join SKYbrary as a registered user

 Actions

Tashkent International Airport

From SKYbrary Wiki

UTTT
Airport
ICAO: UTTT – IATA: TAS
Summary
Name Tashkent International Airport
Region Europe
Territory
Location Tashkent, Uzbekistan
Serving Tashkent
Elevation 431.902 m
1,417 ft
1,417 ft431.902 m
Coordinates 41° 15' 28.30" N, 69° 16' 52.27" E
Runways
Designator Length Width Surface ROPS
08L/26R 4000 m13,123.36 ft
60 m196.85 ft
CON yes/yes
08R/26L 3905 m12,811.68 ft
45 m147.638 ft
ASP yes/yes


METAR
Observation UTTT 232330Z VRB02KT 3000 -SHRA BR OVC066CB 14/13 Q1008 R08R/29//50 NOSIG
Station Tashkent
Date/Time 23 April 2019 23:30:00
Wind direction °
Wind speed 02 kts
Lowest cloud amount overcast
Temperature 14°C
Dew point 13°C
Humidity 93%
QNH 1008 hPa
Weather condition n/a

BS
Tag(s) Bird Strike
CFIT
Tag(s) Altimeter Temperature Error Correction
LOS
Tag(s) Parallel Runway Operation

Tashkent International Airport

ICAO: UTTT IATA: TAS

Description

Tashkent International Airport is the main international airport of Uzbekistan and the largest airport in Central Asia. It is located 12 km6.479 nm
12,000 m
39,370.079 ft
from the center of Tashkent. Sometimes the airport is also referred as Vostochny-Tashkent.

Climatology

Maps

Terrain

Loading map...

Airport Layout

Loading map...


Accidents & Serious Incidents at or in vicinity of UTTT

None on SKYbrary